Fox Creek, Idaho
Current Conditions -  °F | °C
As of 12:56 AM on Saturday 25 Oct 2014 (Local Time) from KDIJ Reporting Station
Clear Clear  
Wind Chill: 34°   Ceiling: Unl
Heat Index: 40°   Visibility: 10mi
Dew Point: 25°   Wind: 8mph
Humidity: 56%   Direction: 150°SSE
Pressure: 30.2"   Gusts: NA
Location:  43.6065°N, 111.138°W
Report Text: KDIJ 250656Z AUTO 15007KT 10SM CLR 04/M04 A3020 RMK AO2 T00441038 SLP170
Loading
Personal Weather Stations






























Interactive Weather Map
Tropical Storm Tracking
New forecast layout! Learn more

10-Day Weather Forecast

Advertisements
Track Severe Weather on mobile